createdAt,value
2018-09-10T10:08:17.326Z,8.13
2018-09-10T10:10:45.318Z,9.83
2018-09-10T10:13:13.391Z,9.33
2018-09-10T10:15:41.414Z,7.73
2018-09-10T10:18:09.278Z,8.67
2018-09-10T10:20:37.292Z,8.77
2018-09-10T10:23:05.278Z,14.00
2018-09-10T10:25:33.259Z,10.17
2018-09-10T10:28:01.465Z,9.23
2018-09-10T10:30:29.433Z,9.07
2018-09-10T10:32:57.488Z,8.43
2018-09-10T10:35:25.437Z,8.03
2018-09-10T10:37:54.212Z,8.63
2018-09-10T10:40:22.161Z,9.53
2018-09-10T10:42:50.173Z,7.80
2018-09-10T10:45:18.155Z,7.97
2018-09-10T10:47:46.171Z,8.00
2018-09-10T10:50:16.105Z,12.20
2018-09-10T10:52:44.050Z,9.23
2018-09-10T10:55:12.257Z,8.10
2018-09-10T10:57:40.411Z,9.53
2018-09-10T11:00:08.605Z,8.17
2018-09-10T11:02:36.758Z,8.20
2018-09-10T11:05:05.287Z,7.47
2018-09-10T11:07:33.524Z,8.43
2018-09-10T11:10:01.619Z,8.20
2018-09-10T11:12:29.647Z,8.70
2018-09-10T11:14:57.775Z,7.63
2018-09-10T11:17:25.845Z,8.17
2018-09-10T11:19:54.149Z,8.37
2018-09-10T11:22:22.973Z,8.03
2018-09-10T11:24:51.944Z,9.23
2018-09-10T11:27:20.924Z,8.60
2018-09-10T11:29:48.855Z,8.50
2018-09-10T11:32:16.939Z,8.50
2018-09-10T11:34:45.231Z,7.80
2018-09-10T11:37:13.173Z,8.47
2018-09-10T11:39:41.379Z,11.40
2018-09-10T11:42:09.409Z,9.20
2018-09-10T11:44:39.289Z,7.23
2018-09-10T11:47:07.610Z,8.17
2018-09-10T11:49:37.116Z,7.47
2018-09-10T11:52:06.351Z,7.50
2018-09-10T11:54:34.305Z,7.47
2018-09-10T11:57:02.392Z,7.57
2018-09-10T11:59:30.347Z,7.93
2018-09-10T12:01:58.477Z,8.50
2018-09-10T12:04:26.852Z,8.87
2018-09-10T12:06:54.942Z,7.60
2018-09-10T12:09:23.040Z,8.00
2018-09-10T12:11:51.193Z,9.80
2018-09-10T12:14:19.150Z,8.57
2018-09-10T12:16:47.142Z,7.57
2018-09-10T12:19:15.534Z,8.93
2018-09-10T12:21:43.484Z,8.33
2018-09-10T12:24:11.594Z,7.37
2018-09-10T12:26:40.509Z,7.27
2018-09-10T12:29:08.528Z,7.00
2018-09-10T12:31:36.617Z,7.47
2018-09-10T12:34:05.285Z,6.60
2018-09-10T12:36:33.493Z,6.77
2018-09-10T12:39:01.604Z,7.20
2018-09-10T12:41:31.189Z,8.17
2018-09-10T12:44:00.653Z,7.00
2018-09-10T12:46:33.196Z,7.50
2018-09-10T12:49:01.234Z,6.70
2018-09-10T12:51:29.207Z,7.60
2018-09-10T12:53:57.135Z,7.37
2018-09-10T12:56:25.227Z,7.23
2018-09-10T12:58:53.406Z,6.60
2018-09-10T13:01:21.366Z,7.23
2018-09-10T13:03:49.899Z,7.87
2018-09-10T13:06:17.877Z,7.10
2018-09-10T13:08:45.820Z,6.78
2018-09-10T13:11:14.295Z,8.03
2018-09-10T13:13:42.327Z,6.70
2018-09-10T13:16:10.463Z,6.10
2018-09-10T13:18:39.354Z,6.40
2018-09-10T13:21:07.375Z,6.43
2018-09-10T13:23:35.649Z,7.67
2018-09-10T13:26:03.706Z,7.70
2018-09-10T13:28:31.847Z,6.70
2018-09-10T13:31:00.715Z,6.57
2018-09-10T13:33:28.840Z,8.97
2018-09-10T13:35:56.763Z,7.13
2018-09-10T13:38:24.804Z,7.10
2018-09-10T13:40:52.965Z,7.50
2018-09-10T13:43:22.433Z,9.93
2018-09-10T13:45:50.991Z,6.57
2018-09-10T13:48:31.018Z,7.43
2018-09-10T13:50:58.957Z,6.50
2018-09-10T13:53:26.864Z,9.07
2018-09-10T13:55:54.951Z,6.20
2018-09-10T13:58:22.938Z,6.97
2018-09-10T14:00:51.134Z,7.17
2018-09-10T14:03:19.242Z,6.83
2018-09-10T14:05:47.269Z,7.33
2018-09-10T14:08:17.387Z,7.10
2018-09-10T14:10:48.175Z,6.37
2018-09-10T14:13:16.240Z,6.37
2018-09-10T14:15:44.300Z,6.23
2018-09-10T14:18:12.345Z,6.43
2018-09-10T14:20:41.260Z,7.73
2018-09-10T14:23:09.285Z,7.30
2018-09-10T14:25:37.270Z,6.23
2018-09-10T14:28:05.545Z,8.57
2018-09-10T14:30:33.852Z,6.60
2018-09-10T14:33:02.179Z,7.00
2018-09-10T14:35:30.271Z,6.40
2018-09-10T14:37:58.382Z,7.37
2018-09-10T14:40:26.714Z,5.57
2018-09-10T14:42:54.855Z,6.00
2018-09-10T14:45:22.784Z,6.80
2018-09-10T14:47:50.803Z,6.53
2018-09-10T14:50:18.781Z,6.70
2018-09-10T14:52:47.082Z,6.57
2018-09-10T14:55:14.985Z,6.23
2018-09-10T14:57:42.962Z,6.30
2018-09-10T15:00:15.334Z,7.33
2018-09-10T15:02:43.289Z,6.40
2018-09-10T15:05:11.352Z,6.00
2018-09-10T15:07:39.487Z,5.73
2018-09-10T15:10:07.468Z,6.57
2018-09-10T15:12:35.632Z,6.47
2018-09-10T15:15:03.728Z,5.63
2018-09-10T15:17:31.810Z,6.87
2018-09-10T15:19:59.779Z,6.00
2018-09-10T15:22:30.671Z,5.83
2018-09-10T15:24:58.673Z,6.20
2018-09-10T15:27:26.747Z,6.22
2018-09-10T15:29:54.716Z,6.50
2018-09-10T15:32:22.661Z,6.03
2018-09-10T15:34:50.765Z,6.97
2018-09-10T15:37:18.773Z,7.33
2018-09-10T15:39:47.208Z,6.50
2018-09-10T15:42:15.139Z,5.43
2018-09-10T15:44:44.010Z,6.07
2018-09-10T15:47:12.015Z,6.63
2018-09-10T15:49:40.155Z,8.10
2018-09-10T15:52:08.236Z,6.10
2018-09-10T15:54:36.248Z,8.03
2018-09-10T15:57:04.730Z,8.87
2018-09-10T15:59:36.224Z,7.30
2018-09-10T16:02:04.767Z,6.83
2018-09-10T16:04:32.715Z,6.90
2018-09-10T16:07:00.744Z,7.03
2018-09-10T16:09:28.837Z,9.13
2018-09-10T16:11:56.844Z,6.47
2018-09-10T16:14:24.837Z,6.80
2018-09-10T16:16:53.099Z,8.30
2018-09-10T16:19:21.898Z,6.40
2018-09-10T16:21:50.051Z,6.67
2018-09-10T16:24:17.934Z,9.40
2018-09-10T16:26:46.053Z,6.73
2018-09-10T16:29:13.951Z,6.43
2018-09-10T16:31:42.660Z,6.50
2018-09-10T16:34:10.583Z,6.90
2018-09-10T16:36:38.566Z,6.00
2018-09-10T16:39:08.535Z,9.17
2018-09-10T16:41:37.042Z,8.97
2018-09-10T16:44:05.049Z,7.30
2018-09-10T16:46:33.311Z,8.23
2018-09-10T16:49:01.527Z,7.80
2018-09-10T16:51:29.453Z,7.07
2018-09-10T16:53:57.452Z,7.90
2018-09-10T16:56:25.443Z,9.53
2018-09-10T16:58:53.465Z,7.50
2018-09-10T17:01:21.427Z,6.73
2018-09-10T17:03:49.897Z,7.60
2018-09-10T17:06:17.953Z,7.30
2018-09-10T17:08:46.207Z,10.13
2018-09-10T17:11:14.164Z,6.73
2018-09-10T17:13:42.252Z,9.30
2018-09-10T17:16:10.298Z,13.07
2018-09-10T17:18:40.259Z,8.57
2018-09-10T17:21:08.367Z,12.30
2018-09-10T17:23:36.364Z,7.27
2018-09-10T17:26:04.328Z,8.70
2018-09-10T17:28:32.409Z,7.97
2018-09-10T17:31:00.510Z,12.10
2018-09-10T17:33:28.545Z,8.57
2018-09-10T17:35:56.507Z,9.20
2018-09-10T17:38:24.571Z,7.53
2018-09-10T17:40:52.690Z,8.00
2018-09-10T17:43:20.788Z,8.00
2018-09-10T17:45:49.108Z,8.83
2018-09-10T17:48:17.058Z,8.33
2018-09-10T17:50:45.014Z,7.17
2018-09-10T17:53:13.761Z,7.80
2018-09-10T17:55:42.348Z,17.27
2018-09-10T17:58:10.265Z,9.60
2018-09-10T18:00:39.676Z,10.33
2018-09-10T18:03:09.057Z,8.07
2018-09-10T18:05:37.695Z,8.93
2018-09-10T18:08:06.161Z,10.93
2018-09-10T18:10:35.225Z,9.07
2018-09-10T18:13:03.174Z,8.60
2018-09-10T18:15:32.962Z,7.87
2018-09-10T18:18:01.778Z,7.87
2018-09-10T18:20:29.982Z,8.83
2018-09-10T18:22:58.242Z,7.97
2018-09-10T18:25:26.966Z,8.47
2018-09-10T18:27:54.965Z,8.13
2018-09-10T18:30:23.006Z,10.47
2018-09-10T18:32:50.965Z,12.00
2018-09-10T18:35:19.092Z,8.37
2018-09-10T18:37:47.581Z,9.40
2018-09-10T18:40:15.656Z,8.60
2018-09-10T18:42:43.792Z,8.33
2018-09-10T18:45:11.763Z,11.03
2018-09-10T18:47:39.702Z,10.23
2018-09-10T18:50:07.736Z,9.30
2018-09-10T18:52:35.938Z,9.60
2018-09-10T18:55:04.075Z,8.97
2018-09-10T18:57:32.133Z,8.50
2018-09-10T19:00:00.180Z,12.10
2018-09-10T19:02:28.053Z,12.50
2018-09-10T19:04:57.061Z,9.67
2018-09-10T19:07:25.028Z,8.67
2018-09-10T19:09:52.925Z,10.20
2018-09-10T19:12:21.067Z,8.77
2018-09-10T19:14:49.047Z,8.60
2018-09-10T19:17:17.143Z,11.67
2018-09-10T19:19:45.241Z,9.07
2018-09-10T19:22:13.198Z,7.90
2018-09-10T19:24:41.438Z,12.07
2018-09-10T19:27:09.493Z,8.40
2018-09-10T19:29:37.685Z,8.40
2018-09-10T19:32:05.649Z,7.97
2018-09-10T19:34:33.643Z,8.23
2018-09-10T19:37:01.594Z,9.33
2018-09-10T19:39:29.648Z,9.03
2018-09-10T19:41:57.668Z,8.77
2018-09-10T19:44:25.669Z,7.77
2018-09-10T19:46:53.627Z,8.43
2018-09-10T19:49:21.526Z,8.97
2018-09-10T19:51:49.659Z,11.83
2018-09-10T19:54:17.685Z,9.83
2018-09-10T19:56:45.638Z,8.33
2018-09-10T19:59:13.644Z,8.67
2018-09-10T20:01:41.676Z,8.33
2018-09-10T20:04:09.565Z,8.50
2018-09-10T20:06:37.519Z,8.10
2018-09-10T20:09:07.728Z,8.63
2018-09-10T20:11:35.801Z,9.13
2018-09-10T20:14:03.831Z,8.30
2018-09-10T20:16:31.763Z,9.00
2018-09-10T20:18:59.756Z,8.80
2018-09-10T20:21:27.742Z,8.70
2018-09-10T20:23:55.821Z,8.67
2018-09-10T20:26:23.710Z,10.97
2018-09-10T20:28:52.019Z,8.83
2018-09-10T20:31:19.898Z,8.53
2018-09-10T20:33:53.230Z,8.97
2018-09-10T20:36:21.155Z,8.80
2018-09-10T20:38:49.272Z,9.13
2018-09-10T20:41:19.541Z,9.60
2018-09-10T20:43:47.580Z,8.87
2018-09-10T20:46:15.546Z,9.17
2018-09-10T20:48:43.587Z,9.07
2018-09-10T20:51:11.659Z,8.80
2018-09-10T20:53:39.627Z,9.57
2018-09-10T20:56:07.799Z,9.50
2018-09-10T20:58:35.988Z,8.87
2018-09-10T21:01:04.088Z,10.13
2018-09-10T21:03:32.111Z,9.10
2018-09-10T21:06:00.143Z,9.63
2018-09-10T21:08:30.386Z,9.33
2018-09-10T21:10:58.406Z,8.87
2018-09-10T21:13:26.336Z,9.73
2018-09-10T21:15:54.288Z,9.60
2018-09-10T21:18:22.344Z,9.20
2018-09-10T21:20:50.249Z,10.57
2018-09-10T21:23:18.243Z,9.97
2018-09-10T21:25:46.222Z,9.67
2018-09-10T21:28:14.242Z,9.57
2018-09-10T21:30:42.289Z,8.90
2018-09-10T21:33:10.327Z,9.57
2018-09-10T21:35:38.585Z,9.10
2018-09-10T21:38:07.790Z,8.80
2018-09-10T21:40:36.150Z,7.87
2018-09-10T21:43:04.116Z,9.53
2018-09-10T21:45:32.273Z,8.97
2018-09-10T21:48:05.341Z,8.60
2018-09-10T21:50:33.394Z,8.13
2018-09-10T21:53:01.648Z,8.50
2018-09-10T21:55:29.744Z,8.87
2018-09-10T21:57:57.632Z,8.67
2018-09-10T22:00:25.971Z,8.33
2018-09-10T22:02:55.137Z,9.00
2018-09-10T22:05:23.258Z,8.47
2018-09-10T22:07:51.414Z,7.93
2018-09-10T22:10:19.382Z,9.17
2018-09-10T22:12:47.475Z,8.80
2018-09-10T22:15:15.377Z,11.10
2018-09-10T22:17:43.762Z,12.63
2018-09-10T22:20:11.767Z,12.50
2018-09-10T22:22:39.739Z,11.60
2018-09-10T22:25:07.702Z,10.37
2018-09-10T22:27:35.810Z,10.83
2018-09-10T22:30:04.017Z,9.37
2018-09-10T22:32:31.928Z,10.43
2018-09-10T22:34:59.846Z,9.17
2018-09-10T22:37:27.747Z,10.43
2018-09-10T22:39:55.693Z,9.87
2018-09-10T22:42:25.585Z,10.43
2018-09-10T22:44:53.530Z,14.83
2018-09-10T22:47:21.463Z,11.80
2018-09-10T22:49:49.437Z,14.00
2018-09-10T22:52:17.341Z,13.00
2018-09-10T22:54:45.483Z,15.00
2018-09-10T22:57:13.408Z,14.47
2018-09-10T22:59:41.870Z,14.80
2018-09-10T23:02:09.872Z,15.20
2018-09-10T23:04:37.817Z,15.10
2018-09-10T23:07:05.840Z,16.13
2018-09-10T23:09:33.938Z,15.13
2018-09-10T23:12:01.901Z,15.57
2018-09-10T23:14:30.580Z,15.70
2018-09-10T23:16:59.479Z,15.67
2018-09-10T23:19:27.756Z,15.37
2018-09-10T23:21:55.690Z,16.30
2018-09-10T23:24:23.795Z,16.37
2018-09-10T23:26:51.779Z,15.33
2018-09-10T23:29:19.692Z,15.77
2018-09-10T23:31:48.330Z,16.33
2018-09-10T23:34:16.237Z,17.63
2018-09-10T23:36:44.920Z,17.23
2018-09-10T23:39:12.755Z,17.17
2018-09-10T23:41:40.775Z,17.10
2018-09-10T23:44:08.750Z,17.57
2018-09-10T23:46:37.052Z,16.80
2018-09-10T23:49:05.291Z,17.00
2018-09-10T23:51:33.388Z,17.43
2018-09-10T23:54:02.009Z,16.97
2018-09-10T23:56:30.005Z,16.27
2018-09-10T23:58:57.961Z,17.47
